Prospect, New York
Current Conditions -  °F | °C
As of 7:53 PM on Friday 31 Oct 2014 (Local Time) from KRME Reporting Station
Overcast Overcast  
Wind Chill:   Ceiling: 5500
Heat Index:   Visibility: 10mi
Dew Point:   Wind: 5mph
Humidity: 76%   Direction: 30°NNE
Pressure: 29.98"   Gusts: NA
Location:  43.3°N, 75.15°W
Report Text: KRME 312353Z 03004KT 10SM OVC055 06/02 A2998 RMK AO2 SLP155 T00610022 10094 20056 53009
Loading
Personal Weather Stations






























Interactive Weather Map
Tropical Storm Tracking
New forecast layout! Learn more

10-Day Weather Forecast

Advertisements
Track Severe Weather on mobile